sensor_id;sensor_type;location;lat;lon;timestamp;pressure;altitude;pressure_sealevel;temperature;humidity
23172;BME280;11754;42.664;23.594;2023-01-28T00:00:54;94752.66;;;1.33;78.83
23172;BME280;11754;42.664;23.594;2023-01-28T00:03:19;94771.56;;;1.35;79.05
23172;BME280;11754;42.664;23.594;2023-01-28T00:05:45;94762.88;;;1.25;79.29
23172;BME280;11754;42.664;23.594;2023-01-28T00:08:10;94774.78;;;1.28;79.51
23172;BME280;11754;42.664;23.594;2023-01-28T00:10:37;94776.31;;;1.30;79.67
23172;BME280;11754;42.664;23.594;2023-01-28T00:13:07;94770.56;;;1.27;79.47
23172;BME280;11754;42.664;23.594;2023-01-28T00:15:33;94785.84;;;1.30;79.35
23172;BME280;11754;42.664;23.594;2023-01-28T00:17:58;94782.69;;;1.26;79.64
23172;BME280;11754;42.664;23.594;2023-01-28T00:20:24;94776.66;;;1.26;78.89
23172;BME280;11754;42.664;23.594;2023-01-28T00:22:49;94782.97;;;1.23;79.33
23172;BME280;11754;42.664;23.594;2023-01-28T00:25:15;94791.59;;;1.24;78.90
23172;BME280;11754;42.664;23.594;2023-01-28T00:27:41;94791.34;;;1.27;79.01
23172;BME280;11754;42.664;23.594;2023-01-28T00:30:07;94795.81;;;1.25;79.19
23172;BME280;11754;42.664;23.594;2023-01-28T00:32:32;94789.47;;;1.17;79.07
23172;BME280;11754;42.664;23.594;2023-01-28T00:34:58;94800.56;;;1.19;79.51
23172;BME280;11754;42.664;23.594;2023-01-28T00:37:23;94804.81;;;1.20;79.45
23172;BME280;11754;42.664;23.594;2023-01-28T00:39:49;94810.19;;;1.29;79.25
23172;BME280;11754;42.664;23.594;2023-01-28T00:42:14;94809.00;;;1.33;79.40
23172;BME280;11754;42.664;23.594;2023-01-28T00:44:40;94798.03;;;1.29;79.32
23172;BME280;11754;42.664;23.594;2023-01-28T00:47:06;94794.38;;;1.32;79.44
23172;BME280;11754;42.664;23.594;2023-01-28T00:49:31;94811.81;;;1.41;79.33
23172;BME280;11754;42.664;23.594;2023-01-28T00:51:57;94810.13;;;1.40;78.92
23172;BME280;11754;42.664;23.594;2023-01-28T00:54:22;94806.16;;;1.36;78.92
23172;BME280;11754;42.664;23.594;2023-01-28T00:56:47;94814.69;;;1.48;78.89
23172;BME280;11754;42.664;23.594;2023-01-28T00:59:13;94815.47;;;1.59;78.63
23172;BME280;11754;42.664;23.594;2023-01-28T01:01:38;94825.41;;;1.75;78.32
23172;BME280;11754;42.664;23.594;2023-01-28T01:04:03;94816.53;;;1.78;77.71
23172;BME280;11754;42.664;23.594;2023-01-28T01:06:34;94816.69;;;1.86;77.30
23172;BME280;11754;42.664;23.594;2023-01-28T01:09:01;94815.66;;;1.98;77.38
23172;BME280;11754;42.664;23.594;2023-01-28T01:11:27;94822.13;;;2.04;76.73
23172;BME280;11754;42.664;23.594;2023-01-28T01:13:54;94817.66;;;2.15;76.87
23172;BME280;11754;42.664;23.594;2023-01-28T01:16:20;94823.97;;;2.23;76.27
23172;BME280;11754;42.664;23.594;2023-01-28T01:18:46;94821.47;;;2.11;76.01
23172;BME280;11754;42.664;23.594;2023-01-28T01:21:14;94832.84;;;2.10;75.86
23172;BME280;11754;42.664;23.594;2023-01-28T01:23:42;94822.94;;;2.04;75.85
23172;BME280;11754;42.664;23.594;2023-01-28T01:26:08;94824.69;;;1.94;76.16
23172;BME280;11754;42.664;23.594;2023-01-28T01:28:34;94820.44;;;1.93;76.05
23172;BME280;11754;42.664;23.594;2023-01-28T01:31:04;94820.69;;;1.90;76.40
23172;BME280;11754;42.664;23.594;2023-01-28T01:33:30;94812.63;;;1.93;76.11
23172;BME280;11754;42.664;23.594;2023-01-28T01:35:56;94820.59;;;2.01;76.06
23172;BME280;11754;42.664;23.594;2023-01-28T01:38:22;94812.13;;;1.99;75.90
23172;BME280;11754;42.664;23.594;2023-01-28T01:40:47;94811.25;;;1.89;75.70
23172;BME280;11754;42.664;23.594;2023-01-28T01:43:19;94826.34;;;1.95;75.88
23172;BME280;11754;42.664;23.594;2023-01-28T01:45:46;94822.94;;;2.04;75.75
23172;BME280;11754;42.664;23.594;2023-01-28T01:50:55;94825.44;;;2.06;75.58
23172;BME280;11754;42.664;23.594;2023-01-28T01:53:23;94829.22;;;2.02;75.24
23172;BME280;11754;42.664;23.594;2023-01-28T01:55:52;94835.69;;;2.07;75.18
23172;BME280;11754;42.664;23.594;2023-01-28T01:58:23;94837.13;;;2.21;75.25
23172;BME280;11754;42.664;23.594;2023-01-28T02:00:50;94841.94;;;2.26;74.88
23172;BME280;11754;42.664;23.594;2023-01-28T02:03:18;94835.41;;;2.31;74.50
23172;BME280;11754;42.664;23.594;2023-01-28T02:05:48;94840.03;;;2.28;74.25
23172;BME280;11754;42.664;23.594;2023-01-28T02:08:14;94834.94;;;2.16;73.99
23172;BME280;11754;42.664;23.594;2023-01-28T02:11:08;94837.34;;;2.08;73.89
23172;BME280;11754;42.664;23.594;2023-01-28T02:13:37;94845.84;;;2.10;74.50
23172;BME280;11754;42.664;23.594;2023-01-28T02:16:04;94840.28;;;1.94;74.52
23172;BME280;11754;42.664;23.594;2023-01-28T02:18:31;94842.88;;;1.94;74.77
23172;BME280;11754;42.664;23.594;2023-01-28T02:31:43;94848.47;;;1.89;75.20
23172;BME280;11754;42.664;23.594;2023-01-28T02:34:39;94844.59;;;1.84;75.36
23172;BME280;11754;42.664;23.594;2023-01-28T02:37:19;94845.25;;;1.76;75.14
23172;BME280;11754;42.664;23.594;2023-01-28T02:39:50;94846.06;;;1.77;75.47
23172;BME280;11754;42.664;23.594;2023-01-28T02:42:29;94849.50;;;1.77;75.48
23172;BME280;11754;42.664;23.594;2023-01-28T02:44:55;94847.16;;;1.74;75.71
23172;BME280;11754;42.664;23.594;2023-01-28T02:47:21;94847.28;;;1.73;75.73
23172;BME280;11754;42.664;23.594;2023-01-28T02:50:11;94855.22;;;1.71;76.17
23172;BME280;11754;42.664;23.594;2023-01-28T02:53:15;94847.56;;;1.70;76.47
23172;BME280;11754;42.664;23.594;2023-01-28T02:56:10;94847.56;;;1.70;76.11
23172;BME280;11754;42.664;23.594;2023-01-28T02:59:02;94847.22;;;1.63;75.95
23172;BME280;11754;42.664;23.594;2023-01-28T03:01:57;94845.28;;;1.55;76.20
23172;BME280;11754;42.664;23.594;2023-01-28T03:04:32;94847.41;;;1.50;76.34
23172;BME280;11754;42.664;23.594;2023-01-28T03:07:04;94846.84;;;1.47;76.59
23172;BME280;11754;42.664;23.594;2023-01-28T03:09:32;94844.47;;;1.43;77.11
23172;BME280;11754;42.664;23.594;2023-01-28T03:14:45;94838.03;;;1.38;77.23
23172;BME280;11754;42.664;23.594;2023-01-28T03:17:45;94852.66;;;1.39;77.33
23172;BME280;11754;42.664;23.594;2023-01-28T03:20:38;94855.50;;;1.36;77.28
23172;BME280;11754;42.664;23.594;2023-01-28T03:23:30;94852.91;;;1.36;77.27
23172;BME280;11754;42.664;23.594;2023-01-28T03:26:18;94851.13;;;1.36;77.55
23172;BME280;11754;42.664;23.594;2023-01-28T03:29:08;94852.47;;;1.31;77.56
23172;BME280;11754;42.664;23.594;2023-01-28T03:31:55;94854.13;;;1.32;77.71
23172;BME280;11754;42.664;23.594;2023-01-28T03:34:40;94851.31;;;1.24;77.49
23172;BME280;11754;42.664;23.594;2023-01-28T03:37:24;94843.72;;;1.32;77.64
23172;BME280;11754;42.664;23.594;2023-01-28T03:39:51;94859.06;;;1.35;77.69
23172;BME280;11754;42.664;23.594;2023-01-28T03:42:17;94851.03;;;1.38;77.15
23172;BME280;11754;42.664;23.594;2023-01-28T03:44:43;94850.31;;;1.36;77.13
23172;BME280;11754;42.664;23.594;2023-01-28T03:47:23;94848.44;;;1.38;76.81
23172;BME280;11754;42.664;23.594;2023-01-28T03:49:50;94851.38;;;1.33;76.65
23172;BME280;11754;42.664;23.594;2023-01-28T03:52:21;94850.63;;;1.42;76.90
23172;BME280;11754;42.664;23.594;2023-01-28T03:54:47;94853.69;;;1.48;76.63
23172;BME280;11754;42.664;23.594;2023-01-28T03:57:17;94849.50;;;1.56;76.43
23172;BME280;11754;42.664;23.594;2023-01-28T03:59:43;94855.66;;;1.55;76.06
23172;BME280;11754;42.664;23.594;2023-01-28T04:02:09;94871.84;;;1.59;75.80
23172;BME280;11754;42.664;23.594;2023-01-28T04:04:38;94870.81;;;1.50;75.44
23172;BME280;11754;42.664;23.594;2023-01-28T04:07:04;94872.50;;;1.40;75.86
23172;BME280;11754;42.664;23.594;2023-01-28T04:09:30;94869.22;;;1.38;75.78
23172;BME280;11754;42.664;23.594;2023-01-28T04:11:55;94872.50;;;1.40;75.81
23172;BME280;11754;42.664;23.594;2023-01-28T04:14:20;94872.50;;;1.40;75.55
23172;BME280;11754;42.664;23.594;2023-01-28T04:16:46;94875.63;;;1.34;75.75
23172;BME280;11754;42.664;23.594;2023-01-28T04:19:11;94890.25;;;1.35;76.07
23172;BME280;11754;42.664;23.594;2023-01-28T04:21:38;94881.75;;;1.33;76.21
23172;BME280;11754;42.664;23.594;2023-01-28T04:24:04;94881.50;;;1.36;76.02
23172;BME280;11754;42.664;23.594;2023-01-28T04:26:29;94875.63;;;1.34;75.88
23172;BME280;11754;42.664;23.594;2023-01-28T04:28:55;94885.28;;;1.32;76.09
23172;BME280;11754;42.664;23.594;2023-01-28T04:31:20;94891.66;;;1.39;75.94
23172;BME280;11754;42.664;23.594;2023-01-28T04:33:48;94902.28;;;1.36;76.11
23172;BME280;11754;42.664;23.594;2023-01-28T04:36:13;94890.06;;;1.27;76.29
23172;BME280;11754;42.664;23.594;2023-01-28T04:38:38;94887.84;;;1.11;76.26
23172;BME280;11754;42.664;23.594;2023-01-28T04:41:04;94894.78;;;1.22;76.51
23172;BME280;11754;42.664;23.594;2023-01-28T04:43:29;94895.28;;;1.15;76.52
23172;BME280;11754;42.664;23.594;2023-01-28T04:45:54;94892.34;;;1.09;76.65
23172;BME280;11754;42.664;23.594;2023-01-28T04:48:20;94903.44;;;1.11;77.33
23172;BME280;11754;42.664;23.594;2023-01-28T04:50:45;94900.34;;;1.17;76.85
23172;BME280;11754;42.664;23.594;2023-01-28T04:53:11;94911.66;;;1.27;77.04
23172;BME280;11754;42.664;23.594;2023-01-28T04:55:36;94902.47;;;1.23;76.67
23172;BME280;11754;42.664;23.594;2023-01-28T04:58:02;94912.50;;;1.16;76.66
23172;BME280;11754;42.664;23.594;2023-01-28T05:00:27;94907.81;;;1.10;77.40
23172;BME280;11754;42.664;23.594;2023-01-28T05:02:53;94922.91;;;1.16;77.25
23172;BME280;11754;42.664;23.594;2023-01-28T05:05:18;94914.41;;;1.14;77.88
23172;BME280;11754;42.664;23.594;2023-01-28T05:07:49;94920.09;;;1.08;77.72
23172;BME280;11754;42.664;23.594;2023-01-28T05:10:15;94926.13;;;1.09;78.02
23172;BME280;11754;42.664;23.594;2023-01-28T05:12:43;94927.00;;;1.19;77.77
23172;BME280;11754;42.664;23.594;2023-01-28T05:15:08;94924.53;;;1.17;77.99
23172;BME280;11754;42.664;23.594;2023-01-28T05:17:34;94936.34;;;1.22;77.91
23172;BME280;11754;42.664;23.594;2023-01-28T05:19:59;94926.91;;;1.20;78.30
23172;BME280;11754;42.664;23.594;2023-01-28T05:22:25;94936.69;;;1.28;78.04
23172;BME280;11754;42.664;23.594;2023-01-28T05:24:50;94924.06;;;1.24;78.09
23172;BME280;11754;42.664;23.594;2023-01-28T05:27:15;94927.34;;;1.26;77.79
23172;BME280;11754;42.664;23.594;2023-01-28T05:29:41;94940.09;;;1.29;77.91
23172;BME280;11754;42.664;23.594;2023-01-28T05:32:06;94941.75;;;1.30;77.81
23172;BME280;11754;42.664;23.594;2023-01-28T05:34:31;94931.63;;;1.27;77.89
23172;BME280;11754;42.664;23.594;2023-01-28T05:36:57;94941.28;;;1.25;77.78
23172;BME280;11754;42.664;23.594;2023-01-28T05:39:22;94946.53;;;1.13;77.84
23172;BME280;11754;42.664;23.594;2023-01-28T05:41:48;94948.88;;;1.16;78.29
23172;BME280;11754;42.664;23.594;2023-01-28T05:44:13;94946.91;;;1.09;77.97
23172;BME280;11754;42.664;23.594;2023-01-28T05:46:39;94957.16;;;1.10;77.96
23172;BME280;11754;42.664;23.594;2023-01-28T05:49:10;94964.94;;;1.10;78.35
23172;BME280;11754;42.664;23.594;2023-01-28T05:51:40;94954.78;;;1.07;78.05
23172;BME280;11754;42.664;23.594;2023-01-28T05:54:06;94960.72;;;0.98;78.09
23172;BME280;11754;42.664;23.594;2023-01-28T05:56:31;94965.91;;;1.09;78.32
23172;BME280;11754;42.664;23.594;2023-01-28T05:58:57;94959.75;;;1.10;78.01
23172;BME280;11754;42.664;23.594;2023-01-28T06:01:22;94969.56;;;1.07;77.77
23172;BME280;11754;42.664;23.594;2023-01-28T06:03:47;94966.84;;;1.08;77.81
23172;BME280;11754;42.664;23.594;2023-01-28T06:06:13;94966.09;;;1.17;77.45
23172;BME280;11754;42.664;23.594;2023-01-28T06:08:38;94975.78;;;1.27;77.22
23172;BME280;11754;42.664;23.594;2023-01-28T06:11:06;94981.22;;;1.24;77.04
23172;BME280;11754;42.664;23.594;2023-01-28T06:13:32;94983.09;;;1.22;76.65
23172;BME280;11754;42.664;23.594;2023-01-28T06:15:57;94982.25;;;1.32;76.59
23172;BME280;11754;42.664;23.594;2023-01-28T06:18:22;94990.59;;;1.47;76.14
23172;BME280;11754;42.664;23.594;2023-01-28T06:20:49;94997.09;;;1.53;75.76
23172;BME280;11754;42.664;23.594;2023-01-28T06:23:14;94990.31;;;1.61;75.60
23172;BME280;11754;42.664;23.594;2023-01-28T06:25:40;94997.50;;;1.69;74.86
23172;BME280;11754;42.664;23.594;2023-01-28T06:28:05;94999.41;;;1.67;74.71
23172;BME280;11754;42.664;23.594;2023-01-28T06:30:30;94995.75;;;1.58;74.82
23172;BME280;11754;42.664;23.594;2023-01-28T06:32:56;95008.31;;;1.53;74.69
23172;BME280;11754;42.664;23.594;2023-01-28T06:35:22;95008.53;;;1.50;74.84
23172;BME280;11754;42.664;23.594;2023-01-28T06:37:47;94972.44;;;1.36;74.74
23172;BME280;11754;42.664;23.594;2023-01-28T06:40:13;95006.63;;;1.63;74.79
23172;BME280;11754;42.664;23.594;2023-01-28T06:42:38;95000.22;;;1.67;74.58
23172;BME280;11754;42.664;23.594;2023-01-28T06:45:04;95001.88;;;1.68;73.91
23172;BME280;11754;42.664;23.594;2023-01-28T06:47:30;95010.97;;;1.74;73.68
23172;BME280;11754;42.664;23.594;2023-01-28T06:49:55;95013.19;;;1.79;73.39
23172;BME280;11754;42.664;23.594;2023-01-28T06:52:20;95016.13;;;1.85;72.78
23172;BME280;11754;42.664;23.594;2023-01-28T06:54:46;95028.16;;;1.86;72.82
23172;BME280;11754;42.664;23.594;2023-01-28T06:57:11;95027.81;;;1.80;72.84
23172;BME280;11754;42.664;23.594;2023-01-28T06:59:36;95038.47;;;1.88;72.82
23172;BME280;11754;42.664;23.594;2023-01-28T07:02:02;95040.19;;;1.99;72.37
23172;BME280;11754;42.664;23.594;2023-01-28T07:04:27;95045.44;;;2.08;72.37
23172;BME280;11754;42.664;23.594;2023-01-28T07:06:52;95038.75;;;1.95;71.93
23172;BME280;11754;42.664;23.594;2023-01-28T07:09:18;95043.94;;;2.06;72.24
23172;BME280;11754;42.664;23.594;2023-01-28T07:11:43;95043.66;;;2.20;71.92
23172;BME280;11754;42.664;23.594;2023-01-28T07:14:08;95053.28;;;2.29;71.54
23172;BME280;11754;42.664;23.594;2023-01-28T07:16:34;95054.09;;;2.30;71.17
23172;BME280;11754;42.664;23.594;2023-01-28T07:18:59;95069.22;;;2.36;71.17
23172;BME280;11754;42.664;23.594;2023-01-28T07:21:25;95076.03;;;2.27;70.91
23172;BME280;11754;42.664;23.594;2023-01-28T07:23:50;95071.69;;;2.16;70.90
23172;BME280;11754;42.664;23.594;2023-01-28T07:26:16;95071.88;;;2.25;71.36
23172;BME280;11754;42.664;23.594;2023-01-28T07:28:41;95074.91;;;2.30;71.46
23172;BME280;11754;42.664;23.594;2023-01-28T07:31:06;95083.69;;;2.29;70.79
23172;BME280;11754;42.664;23.594;2023-01-28T07:33:32;95083.69;;;2.29;71.05
23172;BME280;11754;42.664;23.594;2023-01-28T07:35:57;95084.91;;;2.25;70.69
23172;BME280;11754;42.664;23.594;2023-01-28T07:38:23;95089.03;;;2.48;70.81
23172;BME280;11754;42.664;23.594;2023-01-28T07:40:48;95090.16;;;2.55;70.31
23172;BME280;11754;42.664;23.594;2023-01-28T07:43:14;95086.09;;;2.62;70.21
23172;BME280;11754;42.664;23.594;2023-01-28T07:45:39;95084.84;;;2.78;69.55
23172;BME280;11754;42.664;23.594;2023-01-28T07:48:07;95087.81;;;2.94;69.48
23172;BME280;11754;42.664;23.594;2023-01-28T07:50:35;95094.88;;;3.03;69.32
23172;BME280;11754;42.664;23.594;2023-01-28T07:53:03;95090.78;;;3.10;68.15
23172;BME280;11754;42.664;23.594;2023-01-28T07:55:29;95090.94;;;3.19;68.37
23172;BME280;11754;42.664;23.594;2023-01-28T07:57:58;95088.03;;;3.12;67.08
23172;BME280;11754;42.664;23.594;2023-01-28T08:00:26;95085.91;;;3.27;67.64
23172;BME280;11754;42.664;23.594;2023-01-28T08:02:56;95104.31;;;3.35;67.18
23172;BME280;11754;42.664;23.594;2023-01-28T08:05:22;95099.53;;;3.40;67.02
23172;BME280;11754;42.664;23.594;2023-01-28T08:07:48;95099.97;;;3.45;66.89
23172;BME280;11754;42.664;23.594;2023-01-28T08:10:15;95105.19;;;3.45;66.25
23172;BME280;11754;42.664;23.594;2023-01-28T08:12:50;95109.25;;;3.28;66.17
23172;BME280;11754;42.664;23.594;2023-01-28T08:15:16;95106.53;;;3.40;66.81
23172;BME280;11754;42.664;23.594;2023-01-28T08:17:41;95100.81;;;3.55;66.67
23172;BME280;11754;42.664;23.594;2023-01-28T08:20:07;95104.50;;;3.53;65.68
23172;BME280;11754;42.664;23.594;2023-01-28T08:22:33;95099.59;;;3.19;65.75
23172;BME280;11754;42.664;23.594;2023-01-28T08:24:59;95109.91;;;3.30;66.76
23172;BME280;11754;42.664;23.594;2023-01-28T08:27:24;95116.72;;;3.43;66.38
23172;BME280;11754;42.664;23.594;2023-01-28T08:29:50;95123.72;;;3.52;65.73
23172;BME280;11754;42.664;23.594;2023-01-28T08:32:15;95115.69;;;3.65;66.06
23172;BME280;11754;42.664;23.594;2023-01-28T08:34:41;95125.47;;;3.82;65.28
23172;BME280;11754;42.664;23.594;2023-01-28T08:37:06;95121.16;;;3.61;64.97
23172;BME280;11754;42.664;23.594;2023-01-28T08:39:31;95127.63;;;3.67;64.73
23172;BME280;11754;42.664;23.594;2023-01-28T08:41:57;95126.44;;;3.81;63.90
23172;BME280;11754;42.664;23.594;2023-01-28T08:44:23;95125.38;;;3.93;64.18
23172;BME280;11754;42.664;23.594;2023-01-28T08:46:48;95135.81;;;4.03;64.07
23172;BME280;11754;42.664;23.594;2023-01-28T08:49:14;95130.06;;;4.28;63.80
23172;BME280;11754;42.664;23.594;2023-01-28T08:51:39;95122.13;;;4.49;62.56
23172;BME280;11754;42.664;23.594;2023-01-28T08:54:04;95129.66;;;4.72;61.67
23172;BME280;11754;42.664;23.594;2023-01-28T08:56:30;95123.72;;;4.99;61.36
23172;BME280;11754;42.664;23.594;2023-01-28T08:58:55;95115.34;;;5.05;60.81
23172;BME280;11754;42.664;23.594;2023-01-28T09:01:20;95126.91;;;5.40;59.84
23172;BME280;11754;42.664;23.594;2023-01-28T09:03:46;95127.97;;;5.57;59.17
23172;BME280;11754;42.664;23.594;2023-01-28T09:06:11;95119.16;;;5.85;58.18
23172;BME280;11754;42.664;23.594;2023-01-28T09:08:36;95133.50;;;6.09;57.77
23172;BME280;11754;42.664;23.594;2023-01-28T09:11:02;95128.97;;;6.11;56.36
23172;BME280;11754;42.664;23.594;2023-01-28T09:13:28;95133.31;;;6.20;56.12
23172;BME280;11754;42.664;23.594;2023-01-28T09:15:54;95127.13;;;6.21;55.49
23172;BME280;11754;42.664;23.594;2023-01-28T09:18:20;95119.09;;;6.22;55.95
23172;BME280;11754;42.664;23.594;2023-01-28T09:20:45;95128.47;;;6.25;55.95
23172;BME280;11754;42.664;23.594;2023-01-28T09:23:11;95116.72;;;6.47;55.78
23172;BME280;11754;42.664;23.594;2023-01-28T09:25:37;95121.72;;;6.58;55.33
23172;BME280;11754;42.664;23.594;2023-01-28T09:28:02;95124.66;;;6.37;54.94
23172;BME280;11754;42.664;23.594;2023-01-28T09:30:28;95134.19;;;6.11;55.99
23172;BME280;11754;42.664;23.594;2023-01-28T09:32:55;95114.03;;;5.93;56.92
23172;BME280;11754;42.664;23.594;2023-01-28T09:35:20;95122.16;;;6.18;57.01
23172;BME280;11754;42.664;23.594;2023-01-28T09:37:47;95110.94;;;6.08;55.99
23172;BME280;11754;42.664;23.594;2023-01-28T09:40:16;95122.16;;;6.18;55.89
23172;BME280;11754;42.664;23.594;2023-01-28T09:45:46;95117.59;;;6.20;55.90
23172;BME280;11754;42.664;23.594;2023-01-28T09:48:15;95121.56;;;6.06;56.63
23172;BME280;11754;42.664;23.594;2023-01-28T09:50:45;95116.63;;;5.66;57.06
23172;BME280;11754;42.664;23.594;2023-01-28T09:53:17;95124.50;;;5.19;58.43
23172;BME280;11754;42.664;23.594;2023-01-28T09:55:49;95127.59;;;4.85;59.58
23172;BME280;11754;42.664;23.594;2023-01-28T09:58:16;95135.16;;;4.88;59.84
23172;BME280;11754;42.664;23.594;2023-01-28T10:14:24;95124.59;;;4.41;62.00
23172;BME280;11754;42.664;23.594;2023-01-28T10:17:01;95123.78;;;4.31;62.09
23172;BME280;11754;42.664;23.594;2023-01-28T10:19:34;95114.13;;;4.02;63.27
23172;BME280;11754;42.664;23.594;2023-01-28T10:22:05;95123.19;;;4.18;63.42
23172;BME280;11754;42.664;23.594;2023-01-28T10:24:34;95121.00;;;4.32;62.95
23172;BME280;11754;42.664;23.594;2023-01-28T10:27:02;95119.66;;;4.19;62.52
23172;BME280;11754;42.664;23.594;2023-01-28T10:29:33;95128.94;;;4.02;63.71
23172;BME280;11754;42.664;23.594;2023-01-28T10:32:06;95127.03;;;3.94;64.04
23172;BME280;11754;42.664;23.594;2023-01-28T10:34:38;95130.81;;;3.80;65.15
23172;BME280;11754;42.664;23.594;2023-01-28T10:37:03;95127.16;;;3.52;65.99
23172;BME280;11754;42.664;23.594;2023-01-28T10:39:29;95131.16;;;3.56;66.07
23172;BME280;11754;42.664;23.594;2023-01-28T10:41:54;95123.66;;;3.73;65.94
23172;BME280;11754;42.664;23.594;2023-01-28T10:44:41;95128.06;;;3.82;66.02
23172;BME280;11754;42.664;23.594;2023-01-28T10:47:19;95124.88;;;4.19;66.14
23172;BME280;11754;42.664;23.594;2023-01-28T10:49:52;95121.28;;;4.39;64.83
23172;BME280;11754;42.664;23.594;2023-01-28T10:52:19;95127.88;;;4.43;64.56
23172;BME280;11754;42.664;23.594;2023-01-28T10:54:44;95117.31;;;4.35;64.30
23172;BME280;11754;42.664;23.594;2023-01-28T10:57:13;95118.81;;;4.67;64.59
23172;BME280;11754;42.664;23.594;2023-01-28T10:59:41;95119.59;;;5.16;63.94
23172;BME280;11754;42.664;23.594;2023-01-28T11:02:23;95125.53;;;5.45;62.28
23172;BME280;11754;42.664;23.594;2023-01-28T11:05:15;95118.94;;;5.41;61.83
23172;BME280;11754;42.664;23.594;2023-01-28T11:07:41;95114.34;;;5.16;63.64
23172;BME280;11754;42.664;23.594;2023-01-28T11:10:29;95117.22;;;5.60;63.96
23172;BME280;11754;42.664;23.594;2023-01-28T11:12:58;95111.28;;;6.13;60.49
23172;BME280;11754;42.664;23.594;2023-01-28T11:15:24;95108.03;;;6.29;59.73
23172;BME280;11754;42.664;23.594;2023-01-28T11:17:55;95112.06;;;6.23;58.27
23172;BME280;11754;42.664;23.594;2023-01-28T11:20:23;95119.16;;;6.13;58.39
23172;BME280;11754;42.664;23.594;2023-01-28T11:22:50;95114.22;;;6.45;58.70
23172;BME280;11754;42.664;23.594;2023-01-28T11:25:27;95114.59;;;6.86;57.91
23172;BME280;11754;42.664;23.594;2023-01-28T11:27:54;95113.53;;;6.97;57.46
23172;BME280;11754;42.664;23.594;2023-01-28T11:30:26;95106.22;;;7.09;56.69
23172;BME280;11754;42.664;23.594;2023-01-28T11:35:36;95104.47;;;6.91;56.59
23172;BME280;11754;42.664;23.594;2023-01-28T11:38:01;95100.47;;;7.05;56.04
23172;BME280;11754;42.664;23.594;2023-01-28T11:40:27;95104.91;;;7.05;56.80
23172;BME280;11754;42.664;23.594;2023-01-28T11:42:54;95096.66;;;6.56;57.51
23172;BME280;11754;42.664;23.594;2023-01-28T11:45:34;95104.59;;;6.46;58.26
23172;BME280;11754;42.664;23.594;2023-01-28T11:48:16;95100.22;;;6.01;61.13
23172;BME280;11754;42.664;23.594;2023-01-28T11:53:45;95106.69;;;6.24;60.48
23172;BME280;11754;42.664;23.594;2023-01-28T11:56:38;95106.97;;;6.04;60.60
23172;BME280;11754;42.664;23.594;2023-01-28T11:59:42;95107.63;;;6.06;60.81
23172;BME280;11754;42.664;23.594;2023-01-28T12:07:44;95107.97;;;5.28;63.47
23172;BME280;11754;42.664;23.594;2023-01-28T12:13:18;95112.13;;;5.21;63.99
23172;BME280;11754;42.664;23.594;2023-01-28T12:18:39;95112.19;;;4.82;65.33
23172;BME280;11754;42.664;23.594;2023-01-28T12:21:20;95121.03;;;4.62;65.43
23172;BME280;11754;42.664;23.594;2023-01-28T12:37:58;95112.88;;;5.41;64.29
23172;BME280;11754;42.664;23.594;2023-01-28T12:43:09;95120.34;;;5.91;61.96
23172;BME280;11754;42.664;23.594;2023-01-28T12:45:39;95113.84;;;5.77;62.11
23172;BME280;11754;42.664;23.594;2023-01-28T12:48:27;95117.63;;;5.92;61.20
23172;BME280;11754;42.664;23.594;2023-01-28T12:51:02;95113.94;;;6.48;59.97
23172;BME280;11754;42.664;23.594;2023-01-28T12:53:48;95118.41;;;6.74;58.14
23172;BME280;11754;42.664;23.594;2023-01-28T12:56:17;95127.44;;;6.54;57.99
23172;BME280;11754;42.664;23.594;2023-01-28T13:01:27;95127.19;;;8.46;53.40
23172;BME280;11754;42.664;23.594;2023-01-28T13:04:05;95128.53;;;8.50;52.98
23172;BME280;11754;42.664;23.594;2023-01-28T13:06:39;95130.69;;;8.71;52.49
23172;BME280;11754;42.664;23.594;2023-01-28T13:09:16;95136.44;;;8.90;50.82
23172;BME280;11754;42.664;23.594;2023-01-28T13:11:42;95131.69;;;8.78;50.36
23172;BME280;11754;42.664;23.594;2023-01-28T13:14:11;95127.25;;;8.78;50.81
23172;BME280;11754;42.664;23.594;2023-01-28T13:16:37;95136.28;;;8.68;51.06
23172;BME280;11754;42.664;23.594;2023-01-28T13:21:44;95145.31;;;7.20;53.80
23172;BME280;11754;42.664;23.594;2023-01-28T13:26:54;95152.13;;;6.33;56.54
23172;BME280;11754;42.664;23.594;2023-01-28T13:29:28;95158.44;;;5.75;58.29
23172;BME280;11754;42.664;23.594;2023-01-28T13:32:00;95144.03;;;5.34;60.05
23172;BME280;11754;42.664;23.594;2023-01-28T13:34:30;95148.94;;;5.37;60.33
23172;BME280;11754;42.664;23.594;2023-01-28T13:37:00;95147.59;;;5.33;60.18
23172;BME280;11754;42.664;23.594;2023-01-28T13:39:28;95149.00;;;5.27;60.71
23172;BME280;11754;42.664;23.594;2023-01-28T13:42:07;95164.69;;;5.27;61.59
23172;BME280;11754;42.664;23.594;2023-01-28T13:44:34;95158.41;;;4.91;61.66
23172;BME280;11754;42.664;23.594;2023-01-28T13:49:36;95168.28;;;4.97;62.26
23172;BME280;11754;42.664;23.594;2023-01-28T13:54:52;95176.56;;;4.83;62.27
23172;BME280;11754;42.664;23.594;2023-01-28T13:57:55;95186.19;;;4.73;63.39
23172;BME280;11754;42.664;23.594;2023-01-28T14:09:44;95196.34;;;4.37;64.01
23172;BME280;11754;42.664;23.594;2023-01-28T14:15:31;95207.25;;;4.02;65.39
23172;BME280;11754;42.664;23.594;2023-01-28T14:18:14;95199.81;;;3.97;66.49
23172;BME280;11754;42.664;23.594;2023-01-28T14:20:43;95209.13;;;3.90;66.14
23172;BME280;11754;42.664;23.594;2023-01-28T14:23:18;95213.88;;;3.75;66.34
23172;BME280;11754;42.664;23.594;2023-01-28T14:28:34;95205.50;;;3.72;66.76
23172;BME280;11754;42.664;23.594;2023-01-28T14:31:14;95222.00;;;3.82;66.97
23172;BME280;11754;42.664;23.594;2023-01-28T14:33:42;95207.13;;;3.73;67.36
23172;BME280;11754;42.664;23.594;2023-01-28T14:36:11;95219.38;;;3.51;67.39
23172;BME280;11754;42.664;23.594;2023-01-28T14:38:38;95219.31;;;3.42;67.89
23172;BME280;11754;42.664;23.594;2023-01-28T14:41:06;95226.84;;;3.35;68.50
23172;BME280;11754;42.664;23.594;2023-01-28T14:43:33;95227.94;;;3.32;68.34
23172;BME280;11754;42.664;23.594;2023-01-28T14:46:16;95229.00;;;3.30;68.35